createdAt,value
2018-07-14T00:00:58.336Z,0
2018-07-14T00:02:08.483Z,0
2018-07-14T00:03:18.290Z,0
2018-07-14T00:04:28.363Z,0
2018-07-14T00:05:38.451Z,0
2018-07-14T00:06:48.565Z,0
2018-07-14T00:07:58.692Z,0
2018-07-14T00:09:08.517Z,0
2018-07-14T00:10:18.316Z,0
2018-07-14T00:11:28.094Z,0
2018-07-14T00:12:38.191Z,0
2018-07-14T00:13:48.336Z,0
2018-07-14T00:14:58.409Z,0
2018-07-14T00:16:07.943Z,0
2018-07-14T00:17:17.729Z,0
2018-07-14T00:18:27.527Z,0
2018-07-14T00:19:37.651Z,0
2018-07-14T00:20:47.465Z,0
2018-07-14T00:21:57.272Z,0
2018-07-14T00:23:07.390Z,0
2018-07-14T00:24:17.311Z,0
2018-07-14T00:25:27.170Z,0
2018-07-14T00:26:37.231Z,0
2018-07-14T00:27:47.314Z,0
2018-07-14T00:28:57.170Z,0
2018-07-14T00:30:07.040Z,0
2018-07-14T00:31:16.872Z,0
2018-07-14T00:32:26.396Z,0
2018-07-14T00:33:36.202Z,0
2018-07-14T00:34:46.279Z,0
2018-07-14T00:35:56.344Z,0
2018-07-14T00:37:06.184Z,0
2018-07-14T00:38:16.254Z,0
2018-07-14T00:39:26.328Z,0
2018-07-14T00:40:36.114Z,0
2018-07-14T00:41:46.256Z,0
2018-07-14T00:42:56.114Z,0
2018-07-14T00:44:05.364Z,0
2018-07-14T00:45:14.892Z,0
2018-07-14T00:46:24.700Z,0
2018-07-14T00:47:34.800Z,0
2018-07-14T00:48:44.641Z,0
2018-07-14T00:49:54.709Z,0
2018-07-14T00:51:04.490Z,0
2018-07-14T00:52:14.019Z,4
2018-07-14T00:53:24.074Z,4
2018-07-14T00:54:34.179Z,4
2018-07-14T00:55:43.726Z,4
2018-07-14T00:56:53.804Z,4
2018-07-14T00:58:03.870Z,0
2018-07-14T00:59:13.925Z,0
2018-07-14T01:00:23.506Z,0
2018-07-14T01:01:33.025Z,0
2018-07-14T01:02:42.822Z,4
2018-07-14T01:03:52.918Z,4
2018-07-14T01:05:03.045Z,4
2018-07-14T01:06:13.164Z,4
2018-07-14T01:07:23.218Z,4
2018-07-14T01:08:33.019Z,4
2018-07-14T01:09:43.111Z,4
2018-07-14T01:10:53.176Z,4
2018-07-14T01:12:03.026Z,8
2018-07-14T01:13:12.566Z,4
2018-07-14T01:14:22.364Z,4
2018-07-14T01:15:32.164Z,8
2018-07-14T01:16:41.969Z,4
2018-07-14T01:17:52.086Z,8
2018-07-14T01:19:02.386Z,8
2018-07-14T01:20:12.185Z,8
2018-07-14T01:21:21.999Z,8
2018-07-14T01:22:31.807Z,12
2018-07-14T01:23:45.307Z,8
2018-07-14T01:24:55.376Z,12
2018-07-14T01:26:05.188Z,8
2018-07-14T01:27:14.442Z,12
2018-07-14T01:28:24.518Z,12
2018-07-14T01:29:34.633Z,12
2018-07-14T01:30:44.720Z,12
2018-07-14T01:31:54.795Z,12
2018-07-14T01:33:04.054Z,16
2018-07-14T01:34:14.167Z,16
2018-07-14T01:35:24.285Z,16
2018-07-14T01:36:34.340Z,20
2018-07-14T01:37:44.398Z,20
2018-07-14T01:38:54.477Z,20
2018-07-14T01:40:04.277Z,24
2018-07-14T01:41:14.413Z,24
2018-07-14T01:42:24.196Z,24
2018-07-14T01:43:34.252Z,28
2018-07-14T01:44:44.045Z,28
2018-07-14T01:45:53.573Z,32
2018-07-14T01:47:02.877Z,36
2018-07-14T01:48:12.417Z,40
2018-07-14T01:49:22.222Z,40
2018-07-14T01:50:32.283Z,44
2018-07-14T01:51:41.818Z,44
2018-07-14T01:52:52.005Z,48
2018-07-14T01:54:01.532Z,52
2018-07-14T01:55:11.333Z,52
2018-07-14T01:56:21.126Z,56
2018-07-14T01:57:31.203Z,60
2018-07-14T01:58:41.043Z,64
2018-07-14T01:59:51.111Z,64
2018-07-14T02:01:01.192Z,68
2018-07-14T02:02:10.988Z,72
2018-07-14T02:03:20.785Z,80
2018-07-14T02:04:30.629Z,84
2018-07-14T02:05:40.710Z,88
2018-07-14T02:06:50.783Z,96
2018-07-14T02:08:00.832Z,104
2018-07-14T02:09:10.626Z,112
2018-07-14T02:10:20.483Z,116
2018-07-14T02:11:30.277Z,128
2018-07-14T02:12:40.388Z,132
2018-07-14T02:13:49.909Z,140
2018-07-14T02:14:59.980Z,148
2018-07-14T02:16:09.560Z,152
2018-07-14T02:17:19.375Z,160
2018-07-14T02:18:29.195Z,164
2018-07-14T02:19:38.997Z,168
2018-07-14T02:20:48.257Z,176
2018-07-14T02:21:58.371Z,184
2018-07-14T02:23:08.450Z,192
2018-07-14T02:24:18.541Z,204
2018-07-14T02:25:28.620Z,216
2018-07-14T02:26:38.428Z,232
2018-07-14T02:27:48.560Z,252
2018-07-14T02:28:58.339Z,268
2018-07-14T02:30:08.154Z,288
2018-07-14T02:31:18.256Z,308
2018-07-14T02:32:28.337Z,328
2018-07-14T02:33:37.920Z,348
2018-07-14T02:34:47.989Z,364
2018-07-14T02:35:58.073Z,388
2018-07-14T02:37:08.151Z,412
2018-07-14T02:38:17.708Z,436
2018-07-14T02:39:27.576Z,456
2018-07-14T02:40:37.650Z,480
2018-07-14T02:41:47.724Z,500
2018-07-14T02:42:57.257Z,528
2018-07-14T02:44:06.804Z,544
2018-07-14T02:45:16.934Z,572
2018-07-14T02:46:27.025Z,596
2018-07-14T02:47:37.107Z,616
2018-07-14T02:48:47.183Z,648
2018-07-14T02:49:56.989Z,672
2018-07-14T02:51:06.885Z,708
2018-07-14T02:52:16.691Z,740
2018-07-14T02:53:26.505Z,768
2018-07-14T02:54:36.587Z,800
2018-07-14T02:55:46.108Z,832
2018-07-14T02:56:55.968Z,860
2018-07-14T02:58:06.037Z,896
2018-07-14T02:59:16.098Z,928
2018-07-14T03:03:38.708Z,1036
2018-07-14T03:04:48.517Z,1060
2018-07-14T03:05:58.601Z,1080
2018-07-14T03:07:08.682Z,1100
2018-07-14T03:08:18.771Z,1116
2018-07-14T03:09:28.638Z,1132
2018-07-14T03:10:38.468Z,1152
2018-07-14T03:11:48.268Z,1168
2018-07-14T03:12:58.417Z,1184
2018-07-14T03:14:08.460Z,1208
2018-07-14T03:15:18.038Z,1224
2018-07-14T03:16:28.127Z,1232
2018-07-14T03:17:38.201Z,1240
2018-07-14T03:18:48.020Z,1252
2018-07-14T03:19:58.091Z,1276
2018-07-14T03:21:07.955Z,1296
2018-07-14T03:22:18.022Z,1300
2018-07-14T03:23:27.579Z,1292
2018-07-14T03:24:37.747Z,1284
2018-07-14T03:25:47.830Z,1296
2018-07-14T03:26:57.943Z,1320
2018-07-14T03:28:08.028Z,1352
2018-07-14T03:29:18.106Z,1396
2018-07-14T03:30:28.174Z,1452
2018-07-14T03:31:38.267Z,1504
2018-07-14T03:32:47.857Z,1552
2018-07-14T03:33:57.368Z,1592
2018-07-14T03:35:07.183Z,1636
2018-07-14T03:36:16.711Z,1684
2018-07-14T03:37:26.785Z,1732
2018-07-14T03:38:36.700Z,1780
2018-07-14T03:39:46.771Z,1820
2018-07-14T03:40:56.594Z,1852
2018-07-14T03:42:06.722Z,1872
2018-07-14T03:43:16.639Z,1884
2018-07-14T03:44:26.753Z,1892
2018-07-14T03:45:36.840Z,1908
2018-07-14T03:46:46.905Z,1928
2018-07-14T03:47:56.976Z,1964
2018-07-14T03:49:07.046Z,2000
2018-07-14T03:50:16.881Z,2028
2018-07-14T03:51:26.686Z,2056
2018-07-14T03:52:36.488Z,2068
2018-07-14T03:53:46.017Z,2080
2018-07-14T03:54:56.082Z,2088
2018-07-14T03:56:05.944Z,2108
2018-07-14T03:57:16.035Z,2128
2018-07-14T03:58:26.120Z,2160
2018-07-14T03:59:36.228Z,2188
2018-07-14T04:00:46.302Z,2216
2018-07-14T04:01:56.437Z,2240
2018-07-14T04:03:05.958Z,2268
2018-07-14T04:04:15.769Z,2300
2018-07-14T04:05:25.553Z,2328
2018-07-14T04:06:35.772Z,2348
2018-07-14T04:07:45.807Z,2368
2018-07-14T04:08:55.905Z,2392
2018-07-14T04:10:05.973Z,2408
2018-07-14T04:11:15.498Z,2424
2018-07-14T04:12:25.317Z,2432
2018-07-14T04:13:35.167Z,2444
2018-07-14T04:14:45.093Z,2456
2018-07-14T04:15:54.903Z,2476
2018-07-14T04:17:04.977Z,2492
2018-07-14T04:18:15.060Z,2512
2018-07-14T04:19:25.195Z,2524
2018-07-14T04:20:35.251Z,2536
2018-07-14T04:21:45.351Z,2552
2018-07-14T04:22:55.428Z,2572
2018-07-14T04:24:05.214Z,2600
2018-07-14T04:25:15.340Z,2632
2018-07-14T04:26:25.218Z,2676
2018-07-14T04:27:35.010Z,2732
2018-07-14T04:28:45.101Z,2804
2018-07-14T04:29:54.906Z,2864
2018-07-14T04:31:04.757Z,2916
2018-07-14T04:32:14.022Z,2964
2018-07-14T04:33:23.807Z,3000
2018-07-14T04:34:33.621Z,3032
2018-07-14T04:35:43.695Z,3060
2018-07-14T04:36:53.550Z,3100
2018-07-14T04:38:03.096Z,3148
2018-07-14T04:39:12.896Z,3224
2018-07-14T04:40:22.686Z,3200
2018-07-14T04:41:32.744Z,3332
2018-07-14T04:42:42.897Z,3308
2018-07-14T04:43:53.002Z,3260
2018-07-14T04:45:03.095Z,3264
2018-07-14T04:46:12.884Z,3288
2018-07-14T04:47:22.961Z,3412
2018-07-14T04:48:32.821Z,3484
2018-07-14T04:49:42.362Z,3472
2018-07-14T04:50:52.172Z,3424
2018-07-14T04:52:02.258Z,3428
2018-07-14T04:53:12.281Z,3444
2018-07-14T04:54:22.213Z,3480
2018-07-14T04:55:32.306Z,3468
2018-07-14T04:56:42.386Z,3504
2018-07-14T04:57:52.473Z,3524
2018-07-14T04:59:02.023Z,3580
2018-07-14T05:00:12.144Z,3764
2018-07-14T05:01:21.400Z,3884
2018-07-14T05:02:31.197Z,4056
2018-07-14T05:03:41.290Z,4032
2018-07-14T05:04:51.359Z,4072
2018-07-14T05:06:00.933Z,4256
2018-07-14T05:07:10.448Z,4392
2018-07-14T05:08:20.520Z,4528
2018-07-14T05:09:30.319Z,4604
2018-07-14T05:10:40.377Z,4668
2018-07-14T05:11:50.499Z,4748
2018-07-14T05:13:00.575Z,4824
2018-07-14T05:14:10.373Z,4884
2018-07-14T05:15:19.936Z,4932
2018-07-14T05:16:29.748Z,4988
2018-07-14T05:17:39.877Z,5068
2018-07-14T05:18:49.947Z,5152
2018-07-14T05:19:59.752Z,5224
2018-07-14T05:21:09.550Z,5276
2018-07-14T05:22:19.641Z,5312
2018-07-14T05:23:28.943Z,5316
2018-07-14T05:24:38.768Z,5344
2018-07-14T05:25:48.602Z,5388
2018-07-14T05:26:58.392Z,5464
2018-07-14T05:28:07.905Z,5576
2018-07-14T05:29:18.041Z,5672
2018-07-14T05:30:28.103Z,5728
2018-07-14T05:31:38.198Z,5744
2018-07-14T05:32:48.264Z,5720
2018-07-14T05:33:58.346Z,5656
2018-07-14T05:35:08.195Z,5544
2018-07-14T05:36:18.013Z,5380
2018-07-14T05:37:27.545Z,5108
2018-07-14T05:38:37.073Z,4708
2018-07-14T05:39:46.062Z,4480
2018-07-14T05:40:55.933Z,4304
2018-07-14T05:42:05.747Z,4168
2018-07-14T05:43:15.536Z,4076
2018-07-14T05:44:25.345Z,4000
2018-07-14T05:45:34.927Z,3928
2018-07-14T05:46:44.792Z,3872
2018-07-14T05:47:54.857Z,3812
2018-07-14T05:49:04.386Z,3760
2018-07-14T05:50:14.461Z,3692
2018-07-14T05:51:24.251Z,3620
2018-07-14T05:52:34.373Z,3560
2018-07-14T05:53:44.451Z,3444
2018-07-14T05:54:54.519Z,3360
2018-07-14T05:56:04.599Z,3252
2018-07-14T05:57:14.693Z,3148
2018-07-14T05:58:24.541Z,3068
2018-07-14T05:59:34.613Z,3020
2018-07-14T06:00:44.141Z,2984
2018-07-14T06:01:53.918Z,2964
2018-07-14T06:03:03.721Z,2940
2018-07-14T06:04:13.832Z,2920
2018-07-14T06:05:23.918Z,2908
2018-07-14T06:06:33.478Z,2908
2018-07-14T06:07:43.668Z,2924
2018-07-14T06:08:53.839Z,2964
2018-07-14T06:10:03.980Z,3020
2018-07-14T06:11:13.797Z,3068
2018-07-14T06:12:23.871Z,3112
2018-07-14T06:13:33.945Z,3144
2018-07-14T06:14:43.744Z,3176
2018-07-14T06:15:53.874Z,3204
2018-07-14T06:17:03.981Z,3232
2018-07-14T06:18:13.607Z,3248
2018-07-14T06:19:23.141Z,3256
2018-07-14T06:20:33.341Z,3280
2018-07-14T06:21:43.266Z,3308
2018-07-14T06:22:53.333Z,3352
2018-07-14T06:24:03.137Z,3412
2018-07-14T06:25:12.953Z,3544
2018-07-14T06:26:22.266Z,3728
2018-07-14T06:27:32.370Z,3860
2018-07-14T06:28:42.171Z,3900
2018-07-14T06:29:52.257Z,3916
2018-07-14T06:31:02.320Z,3872
2018-07-14T06:32:12.206Z,3920
2018-07-14T06:33:22.074Z,4032
2018-07-14T06:34:31.609Z,4080
2018-07-14T06:35:41.137Z,4176
2018-07-14T06:36:51.219Z,4280
2018-07-14T06:38:00.933Z,4336
2018-07-14T06:39:11.323Z,4356
2018-07-14T06:40:21.075Z,4300
2018-07-14T06:41:30.976Z,4228
2018-07-14T06:42:41.045Z,4152
2018-07-14T06:43:50.834Z,4120
2018-07-14T06:45:01.100Z,4036
2018-07-14T06:46:11.180Z,3932
2018-07-14T06:47:21.265Z,3960
2018-07-14T06:48:31.076Z,3956
2018-07-14T06:49:41.208Z,4100
2018-07-14T06:50:50.509Z,4520
2018-07-14T06:52:00.574Z,4724
2018-07-14T06:53:10.377Z,4612
2018-07-14T06:54:20.058Z,4684
2018-07-14T06:55:29.804Z,4716
2018-07-14T06:56:39.667Z,4800
2018-07-14T06:57:49.742Z,4960
2018-07-14T06:58:59.544Z,5028
2018-07-14T07:00:09.068Z,5068
2018-07-14T07:01:18.863Z,5044
2018-07-14T07:02:28.726Z,4744
2018-07-14T07:03:38.522Z,4572
2018-07-14T07:04:48.607Z,4528
2018-07-14T07:05:58.153Z,4612
2018-07-14T07:07:07.943Z,4732
2018-07-14T07:08:17.805Z,4864
2018-07-14T07:09:27.613Z,4936
2018-07-14T07:10:37.413Z,5048
2018-07-14T07:11:46.954Z,5168
2018-07-14T07:12:56.740Z,5304
2018-07-14T07:14:06.657Z,5344
2018-07-14T07:15:16.735Z,5392
2018-07-14T07:16:26.802Z,5272
2018-07-14T07:17:36.892Z,5296
2018-07-14T07:18:46.700Z,5260
2018-07-14T07:19:56.811Z,5168
2018-07-14T07:21:06.906Z,5028
2018-07-14T07:22:16.975Z,4876
2018-07-14T07:23:27.045Z,4904
2018-07-14T07:24:37.112Z,4836
2018-07-14T07:25:47.243Z,4744
2018-07-14T07:26:57.313Z,4652
2018-07-14T07:28:07.375Z,4656
2018-07-14T07:29:17.434Z,4512
2018-07-14T07:30:27.224Z,4620
2018-07-14T07:31:37.341Z,4628
2018-07-14T07:32:47.418Z,4632
2018-07-14T07:33:57.694Z,4680
2018-07-14T07:35:07.754Z,4728
2018-07-14T07:36:17.859Z,4784
2018-07-14T07:37:27.736Z,4856
2018-07-14T07:38:37.800Z,4924
2018-07-14T07:39:47.869Z,4996
2018-07-14T07:40:57.682Z,5080
2018-07-14T07:42:07.474Z,5164
2018-07-14T07:43:17.807Z,5268
2018-07-14T07:44:27.747Z,5404
2018-07-14T07:45:37.840Z,5592
2018-07-14T07:46:47.929Z,5828
2018-07-14T07:47:58.013Z,6072
2018-07-14T07:49:08.159Z,6300
2018-07-14T07:50:18.243Z,6480
2018-07-14T07:51:28.330Z,6592
2018-07-14T07:52:38.404Z,6632
2018-07-14T07:53:48.478Z,6632
2018-07-14T07:54:58.321Z,6676
2018-07-14T07:56:08.385Z,6680
2018-07-14T07:57:18.468Z,6700
2018-07-14T07:58:28.553Z,6696
2018-07-14T07:59:38.369Z,6724
2018-07-14T08:00:48.491Z,6696
2018-07-14T08:01:58.029Z,6584
2018-07-14T08:03:07.832Z,6492
2018-07-14T08:04:17.382Z,6364
2018-07-14T08:05:27.187Z,6228
2018-07-14T08:06:37.050Z,6096
2018-07-14T08:07:47.134Z,5972
2018-07-14T08:08:57.234Z,5836
2018-07-14T08:10:07.311Z,5708
2018-07-14T08:11:16.865Z,5580
2018-07-14T08:12:26.715Z,5480
2018-07-14T08:13:36.784Z,5376
2018-07-14T08:14:46.328Z,5192
2018-07-14T08:15:55.895Z,5156
2018-07-14T08:17:05.791Z,5148
2018-07-14T08:18:15.370Z,5176
2018-07-14T08:19:25.179Z,5160
2018-07-14T08:20:35.260Z,5188
2018-07-14T08:21:44.784Z,5188
2018-07-14T08:22:55.496Z,5188
2018-07-14T08:24:05.243Z,5192
2018-07-14T08:25:15.298Z,5200
2018-07-14T08:26:25.391Z,5212
2018-07-14T08:27:35.497Z,5216
2018-07-14T08:28:45.307Z,5224
2018-07-14T08:29:55.169Z,5240
2018-07-14T08:31:04.966Z,5264
2018-07-14T08:32:14.789Z,5296
2018-07-14T08:33:24.993Z,5316
2018-07-14T08:34:34.815Z,5316
2018-07-14T08:35:44.682Z,5300
2018-07-14T08:36:54.481Z,5292
2018-07-14T08:38:04.098Z,5284
2018-07-14T08:39:14.351Z,5284
2018-07-14T08:40:24.447Z,5280
2018-07-14T08:41:34.601Z,5276
2018-07-14T08:42:44.681Z,5292
2018-07-14T08:43:54.954Z,5304
2018-07-14T08:45:04.769Z,5336
2018-07-14T08:46:14.843Z,5352
2018-07-14T08:47:24.710Z,5360
2018-07-14T08:48:34.798Z,5380
2018-07-14T08:49:44.613Z,5396
2018-07-14T08:50:54.677Z,5404
2018-07-14T08:52:03.655Z,5420
2018-07-14T08:53:13.503Z,5444
2018-07-14T08:54:23.573Z,5480
2018-07-14T08:55:33.369Z,5556
2018-07-14T08:56:43.437Z,5652
2018-07-14T08:57:53.516Z,5716
2018-07-14T08:59:03.635Z,5732
2018-07-14T09:00:13.180Z,5720
2018-07-14T09:01:23.006Z,5720
2018-07-14T09:02:33.104Z,5696
2018-07-14T09:03:43.553Z,5688
2018-07-14T09:04:53.767Z,5676
2018-07-14T09:06:03.837Z,5680
2018-07-14T09:07:13.927Z,5664
2018-07-14T09:08:23.723Z,5660
2018-07-14T09:09:33.268Z,5664
2018-07-14T09:10:43.377Z,5676
2018-07-14T09:11:53.510Z,5684
2018-07-14T09:13:03.361Z,5692
2018-07-14T09:14:13.436Z,5704
2018-07-14T09:15:23.516Z,5712
2018-07-14T09:16:33.427Z,5724
2018-07-14T09:17:43.664Z,5732
2018-07-14T09:18:53.478Z,5748
2018-07-14T09:20:03.029Z,5764
2018-07-14T09:21:13.184Z,5776
2018-07-14T09:22:23.351Z,5784
2018-07-14T09:23:33.147Z,5804
2018-07-14T09:24:42.955Z,5820
2018-07-14T09:25:53.019Z,5836
2018-07-14T09:27:02.823Z,5860
2018-07-14T09:28:12.691Z,5884
2018-07-14T09:29:22.767Z,5912
2018-07-14T09:30:32.583Z,5928
2018-07-14T09:31:41.569Z,5960
2018-07-14T09:32:50.839Z,5976
2018-07-14T09:34:00.693Z,5996
2018-07-14T09:35:10.501Z,6020
2018-07-14T09:36:20.596Z,6040
2018-07-14T09:37:30.678Z,6068
2018-07-14T09:38:40.748Z,6084
2018-07-14T09:39:50.323Z,6104
2018-07-14T09:41:00.397Z,6116
2018-07-14T09:42:10.212Z,6132
2018-07-14T09:43:20.019Z,6152
2018-07-14T09:44:29.940Z,6172
2018-07-14T09:45:40.132Z,6196
2018-07-14T09:46:50.214Z,6212
2018-07-14T09:48:00.031Z,6236
2018-07-14T09:49:09.583Z,6260
2018-07-14T09:50:19.666Z,6284
2018-07-14T09:51:29.524Z,6304
2018-07-14T09:52:39.392Z,6324
2018-07-14T09:53:49.461Z,6364
2018-07-14T09:54:59.582Z,6392
2018-07-14T09:56:09.122Z,6420
2018-07-14T09:57:18.438Z,6452
2018-07-14T09:58:28.529Z,6468
2018-07-14T09:59:38.596Z,6492
2018-07-14T10:00:48.659Z,6524
2018-07-14T10:01:58.740Z,6544
2018-07-14T10:03:08.591Z,6536
2018-07-14T10:04:18.396Z,6512
2018-07-14T10:05:28.468Z,6488
2018-07-14T10:06:38.544Z,6496
2018-07-14T10:07:48.354Z,6544
2018-07-14T10:08:58.468Z,6592
2018-07-14T10:10:09.003Z,6656
2018-07-14T10:11:19.173Z,6728
2018-07-14T10:12:29.255Z,6780
2018-07-14T10:13:39.061Z,6792
2018-07-14T10:14:49.209Z,6792
2018-07-14T10:15:59.335Z,6796
2018-07-14T10:17:09.147Z,6780
2018-07-14T10:18:18.992Z,6772
2018-07-14T10:19:28.803Z,6740
2018-07-14T10:20:38.909Z,6464
2018-07-14T10:21:48.452Z,5804
2018-07-14T10:22:58.257Z,7016
2018-07-14T10:24:08.335Z,7072
2018-07-14T10:25:18.527Z,7248
2018-07-14T10:26:29.226Z,7144
2018-07-14T10:27:39.325Z,7040
2018-07-14T10:28:48.872Z,7032
2018-07-14T10:29:58.950Z,7096
2018-07-14T10:31:09.017Z,7156
2018-07-14T10:32:18.897Z,7148
2018-07-14T10:33:28.699Z,7156
2018-07-14T10:34:38.808Z,7192
2018-07-14T10:35:48.911Z,7256
2018-07-14T10:36:58.993Z,7184
2018-07-14T10:38:08.846Z,6336
2018-07-14T10:39:18.373Z,7124
2018-07-14T10:40:28.463Z,7116
2018-07-14T10:41:38.554Z,7144
2018-07-14T10:42:48.621Z,7132
2018-07-14T10:43:58.730Z,7168
2018-07-14T10:45:08.278Z,7176
2018-07-14T10:46:18.085Z,7184
2018-07-14T10:47:27.624Z,7180
2018-07-14T10:48:37.156Z,7208
2018-07-14T10:49:46.795Z,7208
2018-07-14T10:50:56.590Z,7248
2018-07-14T10:52:06.398Z,7284
2018-07-14T10:53:15.933Z,7316
2018-07-14T10:54:25.482Z,7332
2018-07-14T10:55:35.602Z,7364
2018-07-14T10:56:45.683Z,7392
2018-07-14T10:57:55.230Z,7428
2018-07-14T10:59:04.752Z,7476
2018-07-14T11:00:14.830Z,7516
2018-07-14T11:01:24.956Z,7548
2018-07-14T11:02:34.483Z,7564
2018-07-14T11:03:44.295Z,7572
2018-07-14T11:04:53.846Z,7580
2018-07-14T11:06:03.656Z,7616
2018-07-14T11:07:13.535Z,7620
2018-07-14T11:08:23.365Z,7628
2018-07-14T11:09:32.906Z,7652
2018-07-14T11:10:42.991Z,7684
2018-07-14T11:11:53.063Z,7692
2018-07-14T11:13:03.194Z,7696
2018-07-14T11:14:13.289Z,7712
2018-07-14T11:15:23.372Z,7708
2018-07-14T11:16:33.462Z,7704
2018-07-14T11:17:43.569Z,7712
2018-07-14T11:18:53.849Z,7724
2018-07-14T11:20:03.656Z,7740
2018-07-14T11:21:13.447Z,7772
2018-07-14T11:22:23.526Z,7796
2018-07-14T11:23:33.629Z,7820
2018-07-14T11:24:43.481Z,7840
2018-07-14T11:25:53.579Z,7868
2018-07-14T11:27:03.102Z,7912
2018-07-14T11:28:13.172Z,8012
2018-07-14T11:29:23.256Z,8084
2018-07-14T11:30:33.379Z,8120
2018-07-14T11:31:43.203Z,8188
2018-07-14T11:32:53.274Z,8268
2018-07-14T11:34:03.349Z,8412
2018-07-14T11:35:13.428Z,8548
2018-07-14T11:36:23.546Z,8704
2018-07-14T11:37:33.493Z,8808
2018-07-14T11:38:43.319Z,9160
2018-07-14T11:39:53.395Z,10064
2018-07-14T11:41:03.187Z,18528
2018-07-14T11:42:13.249Z,68480
2018-07-14T11:43:23.546Z,88928
2018-07-14T11:44:33.613Z,94464
2018-07-14T11:45:43.686Z,98656
2018-07-14T11:46:53.225Z,97760
2018-07-14T11:48:03.924Z,97632
2018-07-14T11:49:13.741Z,96288
2018-07-14T11:50:23.279Z,92544
2018-07-14T11:51:33.362Z,91616
2018-07-14T11:52:43.175Z,92480
2018-07-14T11:53:53.310Z,93376
2018-07-14T11:55:03.388Z,94336
2018-07-14T11:56:13.484Z,90592
2018-07-14T11:57:23.565Z,88064
2018-07-14T11:58:33.359Z,88480
2018-07-14T11:59:43.223Z,90976
2018-07-14T12:00:53.051Z,90080
2018-07-14T12:02:03.006Z,79296
2018-07-14T12:03:13.207Z,70560
2018-07-14T12:04:23.018Z,68704
2018-07-14T12:05:32.914Z,10792
2018-07-14T12:06:42.720Z,62560
2018-07-14T12:07:52.805Z,73024
2018-07-14T12:09:02.076Z,81280
2018-07-14T12:10:12.164Z,79488
2018-07-14T12:11:22.018Z,74080
2018-07-14T12:12:32.115Z,75040
2018-07-14T12:13:41.937Z,14420
2018-07-14T12:14:51.753Z,14144
2018-07-14T12:16:01.578Z,82752
2018-07-14T12:17:11.190Z,80064
2018-07-14T12:18:20.726Z,77888
2018-07-14T12:19:30.255Z,74624
2018-07-14T12:20:40.338Z,78752
2018-07-14T12:21:50.416Z,83200
2018-07-14T12:23:00.301Z,86240
2018-07-14T12:24:10.106Z,88064
2018-07-14T12:25:19.933Z,87648
2018-07-14T12:26:30.029Z,85696
2018-07-14T12:27:40.203Z,83072
2018-07-14T12:28:50.415Z,82272
2018-07-14T12:30:00.591Z,82400
2018-07-14T12:31:09.910Z,84448
2018-07-14T12:32:19.736Z,82752
2018-07-14T12:33:29.553Z,82560
2018-07-14T12:34:39.421Z,31104
2018-07-14T12:35:48.981Z,61888
2018-07-14T12:36:58.795Z,85856
2018-07-14T12:38:08.611Z,82880
2018-07-14T12:39:18.691Z,86304
2018-07-14T12:40:28.822Z,89088
2018-07-14T12:41:38.654Z,84928
2018-07-14T12:42:48.753Z,81696
2018-07-14T12:43:58.575Z,83520
2018-07-14T12:45:08.400Z,82848
2018-07-14T12:46:18.533Z,86528
2018-07-14T12:47:28.621Z,84416
2018-07-14T12:48:38.460Z,82272
2018-07-14T12:49:48.552Z,81632
2018-07-14T12:50:58.097Z,83072
2018-07-14T12:52:07.985Z,86208
2018-07-14T12:53:17.571Z,86528
2018-07-14T12:54:27.387Z,86624
2018-07-14T12:55:36.660Z,86528
2018-07-14T12:56:46.209Z,88000
2018-07-14T12:57:55.808Z,89184
2018-07-14T12:59:05.609Z,87712
2018-07-14T13:00:15.723Z,86272
2018-07-14T13:01:25.823Z,12536
2018-07-14T13:02:35.902Z,65408
2018-07-14T13:03:46.026Z,90432
2018-07-14T13:04:56.097Z,92864
2018-07-14T13:06:05.913Z,92640
2018-07-14T13:07:16.005Z,88000
2018-07-14T13:08:25.827Z,87552
2018-07-14T13:09:35.700Z,87200
2018-07-14T13:10:45.523Z,72608
2018-07-14T13:11:55.622Z,89440
2018-07-14T13:13:05.428Z,85824
2018-07-14T13:14:15.242Z,92672
2018-07-14T13:15:25.101Z,95552
2018-07-14T13:16:34.939Z,55808
2018-07-14T13:17:45.018Z,11160
2018-07-14T13:18:55.125Z,12616
2018-07-14T13:20:05.237Z,91136
2018-07-14T13:21:15.105Z,94752
2018-07-14T13:22:25.187Z,93696
2018-07-14T13:23:35.258Z,87264
2018-07-14T13:24:45.360Z,16348
2018-07-14T13:25:55.506Z,89536
2018-07-14T13:27:05.113Z,13528
2018-07-14T13:28:14.948Z,13332
2018-07-14T13:29:25.035Z,14264
2018-07-14T13:30:34.582Z,76064
2018-07-14T13:31:44.151Z,94080
2018-07-14T13:32:54.263Z,91488
2018-07-14T13:34:04.058Z,96256
2018-07-14T13:35:13.614Z,91552
2018-07-14T13:36:23.911Z,92992
2018-07-14T13:37:33.509Z,95776
2018-07-14T13:38:54.284Z,91488
2018-07-14T13:40:04.166Z,96416
2018-07-14T13:41:14.326Z,94432
2018-07-14T13:42:23.879Z,90976
2018-07-14T13:43:33.707Z,88544
2018-07-14T13:44:43.576Z,90784
2018-07-14T13:45:53.672Z,14624
2018-07-14T13:47:03.775Z,16664
2018-07-14T13:48:13.310Z,98368
2018-07-14T13:49:23.400Z,14896
2018-07-14T13:50:33.541Z,45952
2018-07-14T13:51:43.632Z,103648
2018-07-14T13:52:53.747Z,77920
2018-07-14T13:54:03.840Z,18464
2018-07-14T13:55:13.657Z,17856
2018-07-14T13:56:23.791Z,16268
2018-07-14T13:57:33.624Z,80064
2018-07-14T13:58:43.458Z,66336
2018-07-14T13:59:53.274Z,79200
2018-07-14T14:01:03.380Z,80384
2018-07-14T14:02:13.528Z,83136
2018-07-14T14:03:23.624Z,82112
2018-07-14T14:04:33.173Z,86048
2018-07-14T14:05:43.023Z,88992
2018-07-14T14:06:53.099Z,91264
2018-07-14T14:08:03.219Z,87712
2018-07-14T14:09:13.313Z,86496
2018-07-14T14:10:22.584Z,85984
2018-07-14T14:11:32.259Z,84768
2018-07-14T14:12:42.345Z,84576
2018-07-14T14:13:52.486Z,85632
2018-07-14T14:15:02.574Z,88800
2018-07-14T14:16:12.405Z,86656
2018-07-14T14:17:22.223Z,83872
2018-07-14T14:18:31.790Z,86432
2018-07-14T14:19:41.386Z,84256
2018-07-14T14:20:51.194Z,80192
2018-07-14T14:22:01.010Z,79040
2018-07-14T14:23:10.824Z,86720
2018-07-14T14:24:20.646Z,86176
2018-07-14T14:25:30.523Z,86368
2018-07-14T14:26:40.604Z,89696
2018-07-14T14:27:50.425Z,85600
2018-07-14T14:29:00.520Z,83168
2018-07-14T14:30:10.617Z,82528
2018-07-14T14:31:20.758Z,77024
2018-07-14T14:32:30.295Z,80320
2018-07-14T14:33:40.389Z,81792
2018-07-14T14:34:50.468Z,78400
2018-07-14T14:36:00.545Z,73600
2018-07-14T14:37:10.696Z,74208
2018-07-14T14:38:20.524Z,78144
2018-07-14T14:39:30.616Z,79072
2018-07-14T14:40:40.696Z,77600
2018-07-14T14:41:50.522Z,73216
2018-07-14T14:43:00.650Z,72928
2018-07-14T14:44:10.461Z,73664
2018-07-14T14:45:20.574Z,69440
2018-07-14T14:46:30.652Z,69984
2018-07-14T14:47:40.211Z,71584
2018-07-14T14:48:50.073Z,69664
2018-07-14T14:50:00.186Z,69376
2018-07-14T14:51:09.459Z,71520
2018-07-14T14:52:19.557Z,74464
2018-07-14T14:53:29.369Z,84736
2018-07-14T14:54:39.244Z,85664
2018-07-14T14:55:49.335Z,69152
2018-07-14T14:56:59.421Z,57152
2018-07-14T14:58:08.960Z,55424
2018-07-14T14:59:18.240Z,54016
2018-07-14T15:00:28.150Z,48320
2018-07-14T15:01:38.263Z,45312
2018-07-14T15:02:47.807Z,47040
2018-07-14T15:03:57.892Z,49440
2018-07-14T15:05:07.713Z,51232
2018-07-14T15:06:17.854Z,53568
2018-07-14T15:07:27.388Z,54432
2018-07-14T15:08:37.486Z,58720
2018-07-14T15:09:47.325Z,66272
2018-07-14T15:10:57.420Z,71008
2018-07-14T15:12:07.568Z,72320
2018-07-14T15:13:17.668Z,69440
2018-07-14T15:14:27.772Z,69952
2018-07-14T15:15:37.852Z,73856
2018-07-14T15:16:47.686Z,75904
2018-07-14T15:17:57.835Z,77024
2018-07-14T15:19:07.392Z,79872
2018-07-14T15:20:16.935Z,80224
2018-07-14T15:21:26.743Z,79328
2018-07-14T15:22:36.555Z,77824
2018-07-14T15:23:46.417Z,77824
2018-07-14T15:24:55.683Z,82528
2018-07-14T15:26:05.484Z,79712
2018-07-14T15:27:15.031Z,78944
2018-07-14T15:28:25.143Z,86048
2018-07-14T15:29:35.287Z,89280
2018-07-14T15:30:45.114Z,89216
2018-07-14T15:31:55.208Z,88032
2018-07-14T15:33:06.109Z,85536
2018-07-14T15:34:16.551Z,86208
2018-07-14T15:35:26.703Z,85856
2018-07-14T15:36:36.809Z,82816
2018-07-14T15:37:46.890Z,83744
2018-07-14T15:38:56.692Z,82816